sensor_id;sensor_type;location;lat;lon;timestamp;pressure;altitude;pressure_sealevel;temperature;humidity
25610;BME280;13479;49.044;8.716;2023-11-21T05:02:13;98460.34;;;10.11;88.96
25610;BME280;13479;49.044;8.716;2023-11-21T05:04:39;98451.41;;;10.12;88.85
25610;BME280;13479;49.044;8.716;2023-11-21T05:07:04;98461.03;;;10.13;88.78
25610;BME280;13479;49.044;8.716;2023-11-21T05:09:29;98456.44;;;10.15;89.04
25610;BME280;13479;49.044;8.716;2023-11-21T05:11:57;98469.00;;;10.13;89.03
25610;BME280;13479;49.044;8.716;2023-11-21T05:14:22;98454.34;;;10.09;89.32
25610;BME280;13479;49.044;8.716;2023-11-21T05:16:47;98446.69;;;10.06;89.40
25610;BME280;13479;49.044;8.716;2023-11-21T05:19:13;98438.00;;;10.14;89.89
25610;BME280;13479;49.044;8.716;2023-11-21T05:21:38;98443.06;;;10.07;89.91
25610;BME280;13479;49.044;8.716;2023-11-21T05:24:04;98456.81;;;10.20;89.69
25610;BME280;13479;49.044;8.716;2023-11-21T05:26:30;98484.91;;;10.13;89.34
25610;BME280;13479;49.044;8.716;2023-11-21T05:28:55;98486.88;;;10.11;89.11
25610;BME280;13479;49.044;8.716;2023-11-21T05:31:20;98485.50;;;10.07;89.21
25610;BME280;13479;49.044;8.716;2023-11-21T05:33:46;98477.22;;;10.10;89.62
25610;BME280;13479;49.044;8.716;2023-11-21T05:36:12;98485.19;;;10.10;89.59
25610;BME280;13479;49.044;8.716;2023-11-21T05:38:37;98480.84;;;10.09;89.51
25610;BME280;13479;49.044;8.716;2023-11-21T05:41:03;98486.88;;;10.11;89.44
25610;BME280;13479;49.044;8.716;2023-11-21T05:43:29;98491.47;;;10.09;89.38
25610;BME280;13479;49.044;8.716;2023-11-21T05:45:55;98498.75;;;10.07;89.56
25610;BME280;13479;49.044;8.716;2023-11-21T05:48:21;98495.78;;;10.20;89.44
25610;BME280;13479;49.044;8.716;2023-11-21T05:50:47;98518.13;;;10.17;88.82
25610;BME280;13479;49.044;8.716;2023-11-21T05:53:14;98529.44;;;10.10;88.83
25610;BME280;13479;49.044;8.716;2023-11-21T05:55:41;98520.38;;;10.12;89.06
25610;BME280;13479;49.044;8.716;2023-11-21T05:58:07;98531.25;;;10.09;89.04
25610;BME280;13479;49.044;8.716;2023-11-21T06:00:32;98528.06;;;10.05;89.05
25610;BME280;13479;49.044;8.716;2023-11-21T06:02:58;98519.81;;;9.99;89.46
25610;BME280;13479;49.044;8.716;2023-11-21T06:05:25;98513.13;;;10.04;89.65
25610;BME280;13479;49.044;8.716;2023-11-21T06:07:54;98515.50;;;10.08;89.67
25610;BME280;13479;49.044;8.716;2023-11-21T06:10:22;98501.41;;;10.07;90.14
25610;BME280;13479;49.044;8.716;2023-11-21T06:12:48;98510.03;;;10.09;90.33
25610;BME280;13479;49.044;8.716;2023-11-21T06:15:14;98519.53;;;10.12;90.06
25610;BME280;13479;49.044;8.716;2023-11-21T06:17:40;98514.50;;;10.18;90.14
25610;BME280;13479;49.044;8.716;2023-11-21T06:20:07;98537.81;;;10.25;89.56
25610;BME280;13479;49.044;8.716;2023-11-21T06:22:40;98556.25;;;10.16;89.36
25610;BME280;13479;49.044;8.716;2023-11-21T06:25:06;98549.41;;;10.04;89.39
25610;BME280;13479;49.044;8.716;2023-11-21T06:27:33;98545.63;;;9.97;89.56
25610;BME280;13479;49.044;8.716;2023-11-21T06:29:59;98533.22;;;10.07;90.20
25610;BME280;13479;49.044;8.716;2023-11-21T06:32:24;98534.06;;;10.17;90.02
25610;BME280;13479;49.044;8.716;2023-11-21T06:34:50;98538.50;;;10.17;90.05
25610;BME280;13479;49.044;8.716;2023-11-21T06:37:15;98541.72;;;10.20;89.99
25610;BME280;13479;49.044;8.716;2023-11-21T06:39:41;98537.41;;;10.10;90.25
25610;BME280;13479;49.044;8.716;2023-11-21T06:42:07;98539.63;;;10.14;90.54
25610;BME280;13479;49.044;8.716;2023-11-21T06:44:32;98535.31;;;10.13;90.59
25610;BME280;13479;49.044;8.716;2023-11-21T06:46:58;98536.81;;;10.26;90.66
25610;BME280;13479;49.044;8.716;2023-11-21T06:49:24;98554.97;;;10.30;90.79
25610;BME280;13479;49.044;8.716;2023-11-21T06:51:49;98575.25;;;10.41;90.20
25610;BME280;13479;49.044;8.716;2023-11-21T06:54:14;98572.28;;;10.25;90.40
25610;BME280;13479;49.044;8.716;2023-11-21T06:56:40;98556.25;;;10.16;91.00
25610;BME280;13479;49.044;8.716;2023-11-21T06:59:06;98547.47;;;10.06;91.57
25610;BME280;13479;49.044;8.716;2023-11-21T07:01:31;98558.50;;;10.01;92.07
25610;BME280;13479;49.044;8.716;2023-11-21T07:04:04;98573.72;;;9.99;92.74
25610;BME280;13479;49.044;8.716;2023-11-21T07:06:29;98578.59;;;10.04;93.21
25610;BME280;13479;49.044;8.716;2023-11-21T07:08:54;98589.91;;;10.06;93.40
25610;BME280;13479;49.044;8.716;2023-11-21T07:11:19;98605.22;;;10.02;93.54
25610;BME280;13479;49.044;8.716;2023-11-21T07:13:46;98607.06;;;10.02;93.66
25610;BME280;13479;49.044;8.716;2023-11-21T07:16:11;98607.75;;;10.04;93.90
25610;BME280;13479;49.044;8.716;2023-11-21T07:18:36;98612.78;;;10.07;93.91
25610;BME280;13479;49.044;8.716;2023-11-21T07:21:02;98617.09;;;10.08;94.00
25610;BME280;13479;49.044;8.716;2023-11-21T07:23:28;98641.84;;;10.18;93.26
25610;BME280;13479;49.044;8.716;2023-11-21T07:25:53;98644.50;;;10.18;93.07
25610;BME280;13479;49.044;8.716;2023-11-21T07:28:19;98646.72;;;10.13;93.18
25610;BME280;13479;49.044;8.716;2023-11-21T07:30:44;98647.16;;;10.18;93.19
25610;BME280;13479;49.044;8.716;2023-11-21T07:33:10;98652.72;;;10.15;93.33
25610;BME280;13479;49.044;8.716;2023-11-21T07:35:35;98647.81;;;10.20;93.18
25610;BME280;13479;49.044;8.716;2023-11-21T07:38:01;98654.94;;;10.20;93.24
25610;BME280;13479;49.044;8.716;2023-11-21T07:40:26;98649.66;;;10.20;93.45
25610;BME280;13479;49.044;8.716;2023-11-21T07:42:52;98649.78;;;10.18;93.46
25610;BME280;13479;49.044;8.716;2023-11-21T07:45:17;98644.91;;;10.24;93.86
25610;BME280;13479;49.044;8.716;2023-11-21T07:47:43;98646.84;;;10.31;93.93
25610;BME280;13479;49.044;8.716;2023-11-21T07:50:08;98645.59;;;10.35;93.79
25610;BME280;13479;49.044;8.716;2023-11-21T07:52:34;98655.13;;;10.38;93.54
25610;BME280;13479;49.044;8.716;2023-11-21T07:54:59;98659.16;;;10.32;93.58
25610;BME280;13479;49.044;8.716;2023-11-21T07:57:24;98650.75;;;10.37;93.58
25610;BME280;13479;49.044;8.716;2023-11-21T07:59:49;98642.97;;;10.45;93.88
25610;BME280;13479;49.044;8.716;2023-11-21T08:02:15;98653.28;;;10.39;93.60
25610;BME280;13479;49.044;8.716;2023-11-21T08:04:42;98659.16;;;10.42;93.93
25610;BME280;13479;49.044;8.716;2023-11-21T08:07:08;98654.13;;;10.49;93.79
25610;BME280;13479;49.044;8.716;2023-11-21T08:09:34;98677.91;;;10.50;93.24
25610;BME280;13479;49.044;8.716;2023-11-21T08:12:00;98674.66;;;10.57;93.36
25610;BME280;13479;49.044;8.716;2023-11-21T08:14:27;98685.28;;;10.57;92.95
25610;BME280;13479;49.044;8.716;2023-11-21T08:16:52;98691.56;;;10.65;92.98
25610;BME280;13479;49.044;8.716;2023-11-21T08:19:22;98689.75;;;10.66;92.64
25610;BME280;13479;49.044;8.716;2023-11-21T08:21:50;98690.72;;;10.65;92.71
25610;BME280;13479;49.044;8.716;2023-11-21T08:24:15;98688.75;;;10.67;92.98
25610;BME280;13479;49.044;8.716;2023-11-21T08:26:41;98685.69;;;10.72;92.91
25610;BME280;13479;49.044;8.716;2023-11-21T08:32:15;98709.69;;;10.90;92.17
25610;BME280;13479;49.044;8.716;2023-11-21T08:34:41;98717.78;;;10.98;91.85
25610;BME280;13479;49.044;8.716;2023-11-21T08:37:08;98707.16;;;10.98;91.35
25610;BME280;13479;49.044;8.716;2023-11-21T08:39:33;98708.28;;;11.05;91.72
25610;BME280;13479;49.044;8.716;2023-11-21T08:41:58;98707.31;;;11.06;91.19
25610;BME280;13479;49.044;8.716;2023-11-21T08:44:24;98700.31;;;11.05;91.23
25610;BME280;13479;49.044;8.716;2023-11-21T08:46:50;98705.31;;;11.18;90.66
25610;BME280;13479;49.044;8.716;2023-11-21T08:49:15;98698.19;;;11.19;90.55
25610;BME280;13479;49.044;8.716;2023-11-21T08:51:40;98699.53;;;11.33;90.26
25610;BME280;13479;49.044;8.716;2023-11-21T08:54:06;98713.22;;;11.38;89.32
25610;BME280;13479;49.044;8.716;2023-11-21T08:56:34;98715.75;;;11.39;88.19
25610;BME280;13479;49.044;8.716;2023-11-21T08:58:59;98691.72;;;11.31;88.51
25610;BME280;13479;49.044;8.716;2023-11-21T09:01:27;98699.34;;;11.44;87.63
25610;BME280;13479;49.044;8.716;2023-11-21T09:03:53;98686.09;;;11.34;88.13
25610;BME280;13479;49.044;8.716;2023-11-21T09:06:18;98675.03;;;11.39;88.38
25610;BME280;13479;49.044;8.716;2023-11-21T09:08:44;98674.75;;;11.32;88.34
25610;BME280;13479;49.044;8.716;2023-11-21T09:11:09;98686.41;;;11.31;88.08
25610;BME280;13479;49.044;8.716;2023-11-21T09:13:35;98683.75;;;11.31;88.10
25610;BME280;13479;49.044;8.716;2023-11-21T09:16:01;98692.25;;;11.35;88.02
25610;BME280;13479;49.044;8.716;2023-11-21T09:18:26;98700.97;;;11.27;87.78
25610;BME280;13479;49.044;8.716;2023-11-21T09:20:52;98698.69;;;11.32;87.99
25610;BME280;13479;49.044;8.716;2023-11-21T09:23:17;98701.22;;;11.34;87.54
25610;BME280;13479;49.044;8.716;2023-11-21T09:25:43;98704.84;;;11.33;87.82
25610;BME280;13479;49.044;8.716;2023-11-21T09:28:11;98716.88;;;11.37;87.71
25610;BME280;13479;49.044;8.716;2023-11-21T09:30:37;98722.75;;;11.31;87.51
25610;BME280;13479;49.044;8.716;2023-11-21T09:33:03;98708.75;;;11.38;87.56
25610;BME280;13479;49.044;8.716;2023-11-21T09:35:30;98714.88;;;11.39;87.82
25610;BME280;13479;49.044;8.716;2023-11-21T09:37:55;98710.63;;;11.56;87.55
25610;BME280;13479;49.044;8.716;2023-11-21T09:40:22;98743.66;;;11.63;87.26
25610;BME280;13479;49.044;8.716;2023-11-21T09:42:57;98774.78;;;11.81;85.50
25610;BME280;13479;49.044;8.716;2023-11-21T09:45:26;98747.47;;;11.79;85.00
25610;BME280;13479;49.044;8.716;2023-11-21T09:47:56;98732.91;;;11.83;84.72
25610;BME280;13479;49.044;8.716;2023-11-21T09:50:22;98722.00;;;11.86;84.75
25610;BME280;13479;49.044;8.716;2023-11-21T09:52:57;98746.31;;;11.91;83.42
25610;BME280;13479;49.044;8.716;2023-11-21T09:55:25;98748.28;;;11.89;82.72
25610;BME280;13479;49.044;8.716;2023-11-21T09:57:53;98735.47;;;11.74;82.55
25610;BME280;13479;49.044;8.716;2023-11-21T10:00:19;98684.84;;;11.66;84.03
25610;BME280;13479;49.044;8.716;2023-11-21T10:02:49;98663.69;;;11.74;83.89
25610;BME280;13479;49.044;8.716;2023-11-21T10:05:15;98659.91;;;11.67;84.28
25610;BME280;13479;49.044;8.716;2023-11-21T10:07:43;98661.78;;;11.57;84.69
25610;BME280;13479;49.044;8.716;2023-11-21T10:10:10;98652.63;;;11.69;84.63
25610;BME280;13479;49.044;8.716;2023-11-21T10:12:35;98639.78;;;11.65;85.06
25610;BME280;13479;49.044;8.716;2023-11-21T10:15:03;98637.66;;;11.68;85.28
25610;BME280;13479;49.044;8.716;2023-11-21T10:17:31;98639.81;;;11.83;85.64
25610;BME280;13479;49.044;8.716;2023-11-21T10:20:05;98652.06;;;11.76;85.77
25610;BME280;13479;49.044;8.716;2023-11-21T10:22:38;98646.59;;;11.95;86.02
25610;BME280;13479;49.044;8.716;2023-11-21T10:25:04;98722.97;;;12.13;83.77
25610;BME280;13479;49.044;8.716;2023-11-21T10:27:32;98752.19;;;12.23;83.12
25610;BME280;13479;49.044;8.716;2023-11-21T10:30:00;98736.91;;;12.25;82.61
25610;BME280;13479;49.044;8.716;2023-11-21T10:32:29;98743.78;;;12.45;81.47
25610;BME280;13479;49.044;8.716;2023-11-21T10:34:57;98760.00;;;12.52;80.44
25610;BME280;13479;49.044;8.716;2023-11-21T10:37:23;98722.72;;;12.52;80.52
25610;BME280;13479;49.044;8.716;2023-11-21T10:39:48;98683.53;;;12.44;81.78
25610;BME280;13479;49.044;8.716;2023-11-21T10:42:14;98655.84;;;12.55;82.14
25610;BME280;13479;49.044;8.716;2023-11-21T10:44:41;98703.22;;;12.70;81.54
25610;BME280;13479;49.044;8.716;2023-11-21T10:47:09;98713.28;;;12.76;81.13
25610;BME280;13479;49.044;8.716;2023-11-21T10:49:37;98746.81;;;12.87;79.80
25610;BME280;13479;49.044;8.716;2023-11-21T10:52:02;98760.06;;;12.78;78.89
25610;BME280;13479;49.044;8.716;2023-11-21T10:54:29;98746.75;;;12.78;78.59
25610;BME280;13479;49.044;8.716;2023-11-21T10:56:59;98732.56;;;12.78;78.96
25610;BME280;13479;49.044;8.716;2023-11-21T10:59:29;98712.59;;;12.74;78.81
25610;BME280;13479;49.044;8.716;2023-11-21T11:01:57;98712.59;;;12.74;79.12
25610;BME280;13479;49.044;8.716;2023-11-21T11:04:24;98718.22;;;12.71;78.82
25610;BME280;13479;49.044;8.716;2023-11-21T11:06:56;98699.50;;;12.62;79.19
25610;BME280;13479;49.044;8.716;2023-11-21T11:09:22;98697.13;;;12.59;79.79
25610;BME280;13479;49.044;8.716;2023-11-21T11:11:48;98664.06;;;12.44;80.43
25610;BME280;13479;49.044;8.716;2023-11-21T11:14:14;98632.72;;;12.38;81.15
25610;BME280;13479;49.044;8.716;2023-11-21T11:16:40;98654.47;;;12.51;80.42
25610;BME280;13479;49.044;8.716;2023-11-21T11:19:07;98691.81;;;12.59;79.65
25610;BME280;13479;49.044;8.716;2023-11-21T11:24:18;98701.13;;;12.55;79.74
25610;BME280;13479;49.044;8.716;2023-11-21T11:34:44;98683.31;;;12.38;80.15
25610;BME280;13479;49.044;8.716;2023-11-21T11:37:11;98677.69;;;12.41;80.07
25610;BME280;13479;49.044;8.716;2023-11-21T11:39:42;98681.91;;;12.33;80.64
25610;BME280;13479;49.044;8.716;2023-11-21T11:42:16;98675.84;;;12.23;80.77
25610;BME280;13479;49.044;8.716;2023-11-21T11:47:29;98697.91;;;12.33;80.46
25610;BME280;13479;49.044;8.716;2023-11-21T11:50:01;98653.25;;;12.27;81.72
25610;BME280;13479;49.044;8.716;2023-11-21T11:52:41;98642.91;;;12.24;81.70
25610;BME280;13479;49.044;8.716;2023-11-21T11:55:12;98643.31;;;12.29;82.11
25610;BME280;13479;49.044;8.716;2023-11-21T11:57:46;98669.31;;;12.35;82.13
25610;BME280;13479;49.044;8.716;2023-11-21T12:00:32;98673.41;;;12.48;81.59
25610;BME280;13479;49.044;8.716;2023-11-21T12:03:03;98713.75;;;12.53;81.12
25610;BME280;13479;49.044;8.716;2023-11-21T12:05:30;98761.44;;;12.64;79.85
25610;BME280;13479;49.044;8.716;2023-11-21T12:08:00;98816.34;;;12.47;77.77
25610;BME280;13479;49.044;8.716;2023-11-21T12:10:28;98795.09;;;12.38;78.16
25610;BME280;13479;49.044;8.716;2023-11-21T12:12:58;98763.00;;;12.21;78.85
25610;BME280;13479;49.044;8.716;2023-11-21T12:15:24;98749.59;;;12.13;78.51
25610;BME280;13479;49.044;8.716;2023-11-21T12:17:51;98801.88;;;12.04;77.68
25610;BME280;13479;49.044;8.716;2023-11-21T12:20:21;98779.09;;;11.92;77.69
25610;BME280;13479;49.044;8.716;2023-11-21T12:22:48;98766.22;;;11.87;78.03
25610;BME280;13479;49.044;8.716;2023-11-21T12:25:17;98727.31;;;11.86;78.72
25610;BME280;13479;49.044;8.716;2023-11-21T12:27:48;98701.53;;;11.86;79.40
25610;BME280;13479;49.044;8.716;2023-11-21T12:30:15;98666.25;;;11.84;79.94
25610;BME280;13479;49.044;8.716;2023-11-21T12:32:43;98679.28;;;11.87;79.92
25610;BME280;13479;49.044;8.716;2023-11-21T12:35:09;98680.41;;;11.85;79.88
25610;BME280;13479;49.044;8.716;2023-11-21T12:37:37;98664.13;;;11.70;80.98
25610;BME280;13479;49.044;8.716;2023-11-21T12:40:05;98651.25;;;11.65;81.38
25610;BME280;13479;49.044;8.716;2023-11-21T12:42:32;98676.09;;;11.84;81.06
25610;BME280;13479;49.044;8.716;2023-11-21T12:45:08;98735.09;;;11.97;79.81
25610;BME280;13479;49.044;8.716;2023-11-21T12:47:37;98760.47;;;11.92;80.23
25610;BME280;13479;49.044;8.716;2023-11-21T12:50:02;98741.16;;;11.89;80.31
25610;BME280;13479;49.044;8.716;2023-11-21T12:52:28;98767.75;;;11.89;79.78
25610;BME280;13479;49.044;8.716;2023-11-21T12:54:53;98751.91;;;11.88;80.52
25610;BME280;13479;49.044;8.716;2023-11-21T12:57:19;98763.41;;;11.88;79.96
25610;BME280;13479;49.044;8.716;2023-11-21T12:59:45;98712.28;;;11.67;81.67
25610;BME280;13479;49.044;8.716;2023-11-21T13:02:12;98692.28;;;11.90;81.53
25610;BME280;13479;49.044;8.716;2023-11-21T13:04:39;98710.59;;;11.94;81.46
25610;BME280;13479;49.044;8.716;2023-11-21T13:07:05;98705.69;;;11.99;81.55
25610;BME280;13479;49.044;8.716;2023-11-21T13:09:39;98747.44;;;11.98;80.85
25610;BME280;13479;49.044;8.716;2023-11-21T13:12:06;98712.66;;;11.72;81.60
25610;BME280;13479;49.044;8.716;2023-11-21T13:14:33;98697.75;;;11.61;82.67
25610;BME280;13479;49.044;8.716;2023-11-21T13:16:59;98710.38;;;11.49;83.00
25610;BME280;13479;49.044;8.716;2023-11-21T13:19:24;98724.91;;;11.55;83.20
25610;BME280;13479;49.044;8.716;2023-11-21T13:21:50;98727.88;;;11.52;83.78
25610;BME280;13479;49.044;8.716;2023-11-21T13:24:15;98765.03;;;11.62;82.83
25610;BME280;13479;49.044;8.716;2023-11-21T13:26:41;98774.31;;;11.48;83.19
25610;BME280;13479;49.044;8.716;2023-11-21T13:29:07;98744.81;;;11.51;84.01
25610;BME280;13479;49.044;8.716;2023-11-21T13:31:33;98751.75;;;11.62;84.12
25610;BME280;13479;49.044;8.716;2023-11-21T13:34:01;98764.78;;;11.55;83.79
25610;BME280;13479;49.044;8.716;2023-11-21T13:36:30;98783.81;;;11.60;83.48
25610;BME280;13479;49.044;8.716;2023-11-21T13:38:58;98776.97;;;11.57;83.75
25610;BME280;13479;49.044;8.716;2023-11-21T13:41:24;98781.03;;;11.52;83.97
25610;BME280;13479;49.044;8.716;2023-11-21T13:43:56;98780.63;;;11.47;83.92
25610;BME280;13479;49.044;8.716;2023-11-21T13:46:31;98773.06;;;11.52;84.50
25610;BME280;13479;49.044;8.716;2023-11-21T13:49:02;98787.16;;;11.62;84.60
25610;BME280;13479;49.044;8.716;2023-11-21T13:51:27;98794.59;;;11.58;84.77
25610;BME280;13479;49.044;8.716;2023-11-21T13:54:03;98817.94;;;11.74;84.26
25610;BME280;13479;49.044;8.716;2023-11-21T13:56:30;98826.00;;;11.83;83.52
25610;BME280;13479;49.044;8.716;2023-11-21T13:58:57;98860.00;;;11.89;82.88
25610;BME280;13479;49.044;8.716;2023-11-21T14:01:26;98875.38;;;11.95;82.34
25610;BME280;13479;49.044;8.716;2023-11-21T14:04:17;98841.84;;;11.74;83.41
25610;BME280;13479;49.044;8.716;2023-11-21T14:06:43;98846.59;;;11.71;82.72
25610;BME280;13479;49.044;8.716;2023-11-21T14:09:16;98851.16;;;11.51;83.16
25610;BME280;13479;49.044;8.716;2023-11-21T14:11:57;98802.16;;;11.43;84.18
25610;BME280;13479;49.044;8.716;2023-11-21T14:14:26;98801.63;;;11.50;84.30
25610;BME280;13479;49.044;8.716;2023-11-21T14:16:53;98801.50;;;11.41;84.53
25610;BME280;13479;49.044;8.716;2023-11-21T14:19:20;98796.75;;;11.35;84.70
25610;BME280;13479;49.044;8.716;2023-11-21T14:21:46;98805.56;;;11.36;85.42
25610;BME280;13479;49.044;8.716;2023-11-21T14:24:14;98834.50;;;11.49;84.97
25610;BME280;13479;49.044;8.716;2023-11-21T14:26:41;98845.81;;;11.51;85.14
25610;BME280;13479;49.044;8.716;2023-11-21T14:29:08;98852.50;;;11.55;85.26
25610;BME280;13479;49.044;8.716;2023-11-21T14:31:34;98880.22;;;11.52;84.37
25610;BME280;13479;49.044;8.716;2023-11-21T14:33:59;98884.72;;;11.52;84.36
25610;BME280;13479;49.044;8.716;2023-11-21T14:36:27;98881.09;;;11.43;84.44
25610;BME280;13479;49.044;8.716;2023-11-21T14:38:52;98867.38;;;11.48;84.70
25610;BME280;13479;49.044;8.716;2023-11-21T14:41:18;98875.22;;;11.39;84.43
25610;BME280;13479;49.044;8.716;2023-11-21T14:43:44;98892.84;;;11.40;84.10
25610;BME280;13479;49.044;8.716;2023-11-21T14:46:10;98935.09;;;11.34;83.37
25610;BME280;13479;49.044;8.716;2023-11-21T14:48:39;98910.47;;;11.22;84.02
25610;BME280;13479;49.044;8.716;2023-11-21T14:51:10;98894.09;;;11.17;84.64
25610;BME280;13479;49.044;8.716;2023-11-21T14:53:53;98886.97;;;11.17;84.86
25610;BME280;13479;49.044;8.716;2023-11-21T14:56:23;98875.25;;;11.20;84.79
25610;BME280;13479;49.044;8.716;2023-11-21T14:59:00;98907.38;;;11.26;84.45
25610;BME280;13479;49.044;8.716;2023-11-21T15:01:37;98912.97;;;11.33;84.49
25610;BME280;13479;49.044;8.716;2023-11-21T15:04:20;98908.78;;;11.21;84.49
25610;BME280;13479;49.044;8.716;2023-11-21T15:06:59;98876.47;;;11.06;85.79
25610;BME280;13479;49.044;8.716;2023-11-21T15:09:24;98874.94;;;11.03;86.32
25610;BME280;13479;49.044;8.716;2023-11-21T15:12:00;98888.66;;;11.08;87.15
25610;BME280;13479;49.044;8.716;2023-11-21T15:14:45;98909.63;;;11.21;87.16
25610;BME280;13479;49.044;8.716;2023-11-21T15:17:14;98922.75;;;11.23;87.07
25610;BME280;13479;49.044;8.716;2023-11-21T15:19:54;98939.72;;;11.41;86.73
25610;BME280;13479;49.044;8.716;2023-11-21T15:22:20;98973.97;;;11.35;86.01
25610;BME280;13479;49.044;8.716;2023-11-21T15:24:46;98964.75;;;11.29;86.46
25610;BME280;13479;49.044;8.716;2023-11-21T15:27:13;98949.63;;;11.20;87.09
25610;BME280;13479;49.044;8.716;2023-11-21T15:29:39;98927.78;;;11.16;87.44
25610;BME280;13479;49.044;8.716;2023-11-21T15:32:08;98935.91;;;11.15;88.12
25610;BME280;13479;49.044;8.716;2023-11-21T15:34:35;98943.44;;;11.09;88.94
25610;BME280;13479;49.044;8.716;2023-11-21T15:37:00;98953.81;;;11.12;89.17
25610;BME280;13479;49.044;8.716;2023-11-21T15:39:26;98973.38;;;11.11;89.41
25610;BME280;13479;49.044;8.716;2023-11-21T15:41:58;98976.22;;;11.20;89.51
25610;BME280;13479;49.044;8.716;2023-11-21T15:44:24;98988.78;;;11.18;89.36
25610;BME280;13479;49.044;8.716;2023-11-21T15:46:51;99009.63;;;11.22;88.53
25610;BME280;13479;49.044;8.716;2023-11-21T15:49:16;99029.66;;;11.36;87.64
25610;BME280;13479;49.044;8.716;2023-11-21T15:51:43;99034.09;;;11.26;87.07
25610;BME280;13479;49.044;8.716;2023-11-21T15:54:17;99016.06;;;11.20;87.34
25610;BME280;13479;49.044;8.716;2023-11-21T15:59:11;98979.25;;;11.05;88.20
25610;BME280;13479;49.044;8.716;2023-11-21T16:01:37;98977.53;;;10.94;88.18
25610;BME280;13479;49.044;8.716;2023-11-21T16:04:07;98990.13;;;11.02;87.69
25610;BME280;13479;49.044;8.716;2023-11-21T16:06:32;99030.09;;;10.91;87.25
25610;BME280;13479;49.044;8.716;2023-11-21T16:09:04;99031.22;;;10.88;86.81
25610;BME280;13479;49.044;8.716;2023-11-21T16:11:31;99014.50;;;10.66;87.55
25610;BME280;13479;49.044;8.716;2023-11-21T16:13:58;99011.53;;;10.60;87.52
25610;BME280;13479;49.044;8.716;2023-11-21T16:16:24;99013.47;;;10.58;87.13
25610;BME280;13479;49.044;8.716;2023-11-21T16:18:50;99007.81;;;10.41;87.61
25610;BME280;13479;49.044;8.716;2023-11-21T16:21:15;98985.31;;;10.45;88.14
25610;BME280;13479;49.044;8.716;2023-11-21T16:23:40;98997.19;;;10.41;88.03
25610;BME280;13479;49.044;8.716;2023-11-21T16:26:06;98988.75;;;10.36;88.71
25610;BME280;13479;49.044;8.716;2023-11-21T16:28:32;98994.59;;;10.30;88.77
25610;BME280;13479;49.044;8.716;2023-11-21T16:30:57;99002.25;;;10.33;88.92
25610;BME280;13479;49.044;8.716;2023-11-21T16:33:22;99028.63;;;10.25;88.37
25610;BME280;13479;49.044;8.716;2023-11-21T16:35:48;99011.56;;;10.17;89.25
25610;BME280;13479;49.044;8.716;2023-11-21T16:38:13;99006.50;;;10.14;89.42
25610;BME280;13479;49.044;8.716;2023-11-21T16:40:39;99024.81;;;10.17;89.20
25610;BME280;13479;49.044;8.716;2023-11-21T16:43:05;99032.63;;;10.19;89.14
25610;BME280;13479;49.044;8.716;2023-11-21T16:45:31;99046.72;;;10.19;89.36
25610;BME280;13479;49.044;8.716;2023-11-21T16:47:56;99039.47;;;10.22;89.16
25610;BME280;13479;49.044;8.716;2023-11-21T16:50:21;99042.09;;;10.12;89.79
25610;BME280;13479;49.044;8.716;2023-11-21T16:52:46;99048.34;;;10.11;89.76
25610;BME280;13479;49.044;8.716;2023-11-21T16:55:12;99053.66;;;10.11;89.69
25610;BME280;13479;49.044;8.716;2023-11-21T16:57:38;99053.09;;;10.07;89.67
25610;BME280;13479;49.044;8.716;2023-11-21T17:00:04;99073.00;;;10.01;89.44
25610;BME280;13479;49.044;8.716;2023-11-21T17:02:32;99098.88;;;10.09;88.73
25610;BME280;13479;49.044;8.716;2023-11-21T17:04:58;99127.56;;;10.15;87.78
25610;BME280;13479;49.044;8.716;2023-11-21T17:07:23;99116.75;;;10.07;88.06
25610;BME280;13479;49.044;8.716;2023-11-21T17:09:49;99122.28;;;10.04;87.84
25610;BME280;13479;49.044;8.716;2023-11-21T17:12:14;99133.50;;;10.08;87.52
25610;BME280;13479;49.044;8.716;2023-11-21T17:14:41;99121.34;;;10.05;87.13
25610;BME280;13479;49.044;8.716;2023-11-21T17:17:08;99115.44;;;10.01;87.75
25610;BME280;13479;49.044;8.716;2023-11-21T17:19:36;99119.66;;;10.04;87.55
25610;BME280;13479;49.044;8.716;2023-11-21T17:22:01;99111.69;;;10.04;87.75
25610;BME280;13479;49.044;8.716;2023-11-21T17:24:26;99118.94;;;10.02;87.78
25610;BME280;13479;49.044;8.716;2023-11-21T17:26:52;99140.25;;;10.12;87.09
25610;BME280;13479;49.044;8.716;2023-11-21T17:29:18;99139.75;;;10.07;86.92
25610;BME280;13479;49.044;8.716;2023-11-21T17:31:44;99124.22;;;10.02;87.52
25610;BME280;13479;49.044;8.716;2023-11-21T17:34:09;99125.06;;;10.02;87.72
25610;BME280;13479;49.044;8.716;2023-11-21T17:36:34;99125.66;;;10.06;87.47
25610;BME280;13479;49.044;8.716;2023-11-21T17:39:00;99133.41;;;9.98;87.55
25610;BME280;13479;49.044;8.716;2023-11-21T17:41:25;99121.56;;;10.02;87.99
25610;BME280;13479;49.044;8.716;2023-11-21T17:43:50;99121.34;;;10.05;88.08
25610;BME280;13479;49.044;8.716;2023-11-21T17:46:19;99150.25;;;10.08;87.39
25610;BME280;13479;49.044;8.716;2023-11-21T17:48:47;99149.66;;;10.04;87.83
25610;BME280;13479;49.044;8.716;2023-11-21T17:51:12;99126.63;;;10.05;88.08
25610;BME280;13479;49.044;8.716;2023-11-21T17:53:38;99135.19;;;10.09;87.83
25610;BME280;13479;49.044;8.716;2023-11-21T17:56:05;99148.31;;;10.10;87.72
25610;BME280;13479;49.044;8.716;2023-11-21T17:58:30;99166.78;;;10.12;87.35
25610;BME280;13479;49.044;8.716;2023-11-21T18:00:56;99177.75;;;10.07;87.15
25610;BME280;13479;49.044;8.716;2023-11-21T18:03:21;99188.47;;;10.05;86.98
25610;BME280;13479;49.044;8.716;2023-11-21T18:05:46;99182.59;;;10.02;87.48
25610;BME280;13479;49.044;8.716;2023-11-21T18:08:12;99171.00;;;10.03;87.66
25610;BME280;13479;49.044;8.716;2023-11-21T18:10:38;99156.91;;;9.91;87.76
25610;BME280;13479;49.044;8.716;2023-11-21T18:13:04;99152.81;;;9.98;87.90
25610;BME280;13479;49.044;8.716;2023-11-21T18:15:29;99145.97;;;9.96;87.85
25610;BME280;13479;49.044;8.716;2023-11-21T18:17:55;99153.53;;;10.00;88.11
25610;BME280;13479;49.044;8.716;2023-11-21T18:20:20;99173.78;;;10.01;87.40